Ana Sayfa
METAR-TAF:

METAR-TAF

Havaalanları :

Kişinev Uluslararası Havalimanı

Kişinev, Moldova

Enlem: 46-55-40N, Boylam: 028-55-51E, yükseklik: 122 m

Güncel hava durumu gözlemi

Rapor saat 08:30 UTC de 26 dakika önce yapıldı.
Rüzgar doğu/kuzeydoğudan 5 kt, kuzey/kuzeydoğu ve güneydoğu arasında değişken
Sıcaklık 30°C
Nem 25%
Basınç 1024 hPa
Görüş mesafesi 10 km veya daha fazla
1500 m altında bulut yok ve kümülonimbus yok

METAR: LUKK 260830Z 07005KT 030V130 CAVOK 30/08 Q1024 R08/D NOSIG

Saat: 11:56 (08:56 UTC)

Tahmin

Rapor saat 05:20 UTC de 3 saat ve 36 dakika önce yapıldı.
Ayın 26'si saat 06 UTC'den ayın 27'si saat 06 UTC'ye kadar geçerli Tahmin
Rüzgar kuzeydoğudan 6 kt
Görüş mesafesi 10 km veya daha fazla
1500 m altında bulut yok ve kümülonimbus yok

TAF: LUKK 260520Z 2606/2706 05006KT CAVOK

4.000'den fazla havaalanı için hava durumu gözlemleri ve tahminleri (METAR ve TAF raporları).

Kullanılabilir istasyonlar harita üzerinde sarı ve kırmızı noktalarla gösterilir.

İstasyonun adını görmek için fareyi noktanın üzerinde gezdirin.

Sonrasında hava gözlem ve tahminlerini görmek için tıklayın.

Haritayı değiştirmek için: yaklaştırmak için siyah artı işaretli yeşil düğmeye ve uzaklaştırmak için de eksi işaretli düğmeye hızla tıklayın; bitişik haritalar için yeşil okları kullanın.


METAR-TAF: